Time;durP1;ratioP1;P1;durP2;ratioP2;P2;SDS_P1;SDS_P2;PMS_P1;PMS_P2;Temp;Humidity;BMP_temperature;BMP_pressure;BME280_temperature;BME280_humidity;BME280_pressure;Samples;Min_cycle;Max_cycle;Signal;HPM_P1;HPM_P2
2023/03/22 00:01:47;;;;;;;;;;;;;;;;;;5111622;28;1332;-70
2023/03/22 00:04:12;;;;;;;;;;;;;;;;;;5112890;28;994;-71
2023/03/22 00:06:37;;;;;;;;;;;;;;;;;;5111609;28;1134;-71
2023/03/22 00:09:03;;;;;;;;;;;;;;;;;;5111968;28;1269;-71
2023/03/22 00:11:28;;;;;;;;;;;;;;;;;;5113563;28;930;-71
2023/03/22 00:13:53;;;;;;;;;;;;;;;;;;5094718;28;1300;-70
2023/03/22 00:16:19;;;;;;;;;;;;;;;;;;5111139;28;1914;-71
2023/03/22 00:18:45;;;;;;;;;;;;;;;;;;5114176;28;879;-71
2023/03/22 00:21:12;;;;;;;;;;;;;;;;;;5116431;28;1064;-70
2023/03/22 00:23:37;;;;;;;;;;;;;;;;;;5116005;28;911;-71
2023/03/22 00:26:03;;;;;;;;;;;;;;;;;;5116316;28;914;-71
2023/03/22 00:28:28;;;;;;;;;;;;;;;;;;5097847;28;1289;-70
2023/03/22 00:30:55;;;;;;;;;;;;;;;;;;5114847;28;1054;-70
2023/03/22 00:33:20;;;;;;;;;;;;;;;;;;5114917;28;1004;-70
2023/03/22 00:35:49;;;;;;;;;;;;;;;;;;5115267;28;1906;-71
2023/03/22 00:38:15;;;;;;;;;;;;;;;;;;5114793;28;1282;-70
2023/03/22 00:40:40;;;;;;;;;;;;;;;;;;5116293;28;895;-70
2023/03/22 00:43:06;;;;;;;;;;;;;;;;;;5116472;28;875;-70
2023/03/22 00:45:35;;;;;;;;;;;;;;;;;;5098449;28;1416;-70
2023/03/22 00:48:00;;;;;;;;;;;;;;;;;;5114687;28;817;-71
2023/03/22 00:50:25;;;;;;;;;;;;;;;;;;5115175;28;900;-71
2023/03/22 00:52:50;;;;;;;;;;;;;;;;;;5115044;28;887;-70
2023/03/22 00:55:16;;;;;;;;;;;;;;;;;;5097521;28;1902;-71
2023/03/22 00:57:41;;;;;;;;;;;;;;;;;;5114807;28;1336;-71
2023/03/22 01:00:11;;;;;;;;;;;;;;;;;;5114370;28;1219;-70
2023/03/22 01:02:37;;;;;;;;;;;;;;;;;;5116492;28;860;-71
2023/03/22 01:05:03;;;;;;;;;;;;;;;;;;5116007;28;816;-71
2023/03/22 01:07:29;;;;;;;;;;;;;;;;;;5115716;28;1029;-71
2023/03/22 01:09:54;;;;;;;;;;;;;;;;;;5114295;28;1114;-71
2023/03/22 01:12:19;;;;;;;;;;;;;;;;;;5116087;27;1009;-71
2023/03/22 01:14:45;;;;;;;;;;;;;;;;;;5114555;28;1181;-71
2023/03/22 01:17:10;;;;;;;;;;;;;;;;;;5114381;28;1913;-70
2023/03/22 01:19:36;;;;;;;;;;;;;;;;;;5097974;28;1276;-70
2023/03/22 01:22:02;;;;;;;;;;;;;;;;;;5114175;28;1297;-70
2023/03/22 01:24:27;;;;;;;;;;;;;;;;;;5116208;28;825;-70
2023/03/22 01:26:53;;;;;;;;;;;;;;;;;;5115051;28;992;-71
2023/03/22 01:29:18;;;;;;;;;;;;;;;;;;5114278;28;1173;-71
2023/03/22 01:31:43;;;;;;;;;;;;;;;;;;5116183;28;994;-71
2023/03/22 01:34:09;;;;;;;;;;;;;;;;;;5115931;28;836;-71
2023/03/22 01:36:35;;;;;;;;;;;;;;;;;;5114752;28;1976;-71
2023/03/22 01:39:01;;;;;;;;;;;;;;;;;;5115798;28;907;-71
2023/03/22 01:41:26;;;;;;;;;;;;;;;;;;5114992;28;1308;-71
2023/03/22 01:44:11;;;;;;;;;;;;;;;;;;5114260;28;1204;-71
2023/03/22 01:46:37;;;;;;;;;;;;;;;;;;5114587;28;1169;-70
2023/03/22 01:49:03;;;;;;;;;;;;;;;;;;5114700;28;839;-71
2023/03/22 01:51:29;;;;;;;;;;;;;;;;;;5113125;28;1348;-71
2023/03/22 01:53:56;;;;;;;;;;;;;;;;;;5114694;28;914;-71
2023/03/22 01:56:24;;;;;;;;;;;;;;;;;;5113836;28;1905;-71
2023/03/22 01:58:50;;;;;;;;;;;;;;;;;;5113989;28;847;-71
2023/03/22 02:01:15;;;;;;;;;;;;;;;;;;5114251;28;852;-71
2023/03/22 02:03:47;;;;;;;;;;;;;;;;;;5113193;28;939;-71
2023/03/22 02:06:12;;;;;;;;;;;;;;;;;;5114400;28;927;-71
2023/03/22 02:08:39;;;;;;;;;;;;;;;;;;5114147;28;875;-72
2023/03/22 02:11:05;;;;;;;;;;;;;;;;;;5112673;28;1273;-71
2023/03/22 02:13:38;;;;;;;;;;;;;;;;;;5095981;28;1304;-71
2023/03/22 02:16:03;;;;;;;;;;;;;;;;;;5112815;28;1964;-71
2023/03/22 02:18:47;;;;;;;;;;;;;;;;;;5112623;28;1166;-71
2023/03/22 02:21:21;;;;;;;;;;;;;;;;;;5112426;28;1301;-71
2023/03/22 02:23:53;;;;;;;;;;;;;;;;;;5112144;28;1138;-71
2023/03/22 02:26:21;;;;;;;;;;;;;;;;;;5112382;28;1301;-71
2023/03/22 02:29:07;;;;;;;;;;;;;;;;;;5113399;28;812;-71
2023/03/22 02:31:48;;;;;;;;;;;;;;;;;;5112214;28;1162;-71
2023/03/22 02:34:17;;;;;;;;;;;;;;;;;;5113206;28;864;-70
2023/03/22 02:36:48;;;;;;;;;;;;;;;;;;5112127;28;1917;-71
2023/03/22 02:39:19;;;;;;;;;;;;;;;;;;5112218;28;1146;-70
2023/03/22 02:41:51;;;;;;;;;;;;;;;;;;5111850;28;1170;-71
2023/03/22 02:44:22;;;;;;;;;;;;;;;;;;5113253;28;891;-71
2023/03/22 02:47:00;;;;;;;;;;;;;;;;;;5111966;28;1210;-71
2023/03/22 02:49:46;;;;;;;;;;;;;;;;;;5113704;28;1006;-71
2023/03/22 02:52:22;;;;;;;;;;;;;;;;;;5113145;28;821;-71
2023/03/22 02:55:01;;;;;;;;;;;;;;;;;;5113256;28;998;-71
2023/03/22 02:57:37;;;;;;;;;;;;;;;;;;5113463;28;907;-71
2023/03/22 03:00:11;;;;;;;;;;;;;;;;;;5111995;28;1146;-71
2023/03/22 03:02:40;;;;;;;;;;;;;;;;;;5112146;28;1296;-71
2023/03/22 03:05:07;;;;;;;;;;;;;;;;;;5113799;28;844;-71
2023/03/22 03:07:33;;;;;;;;;;;;;;;;;;5114316;28;1167;-71
2023/03/22 03:09:58;;;;;;;;;;;;;;;;;;5112260;28;820;-71
2023/03/22 03:12:24;;;;;;;;;;;;;;;;;;5113252;28;871;-71
2023/03/22 03:14:50;;;;;;;;;;;;;;;;;;5112226;28;1322;-71
2023/03/22 03:17:15;;;;;;;;;;;;;;;;;;5111589;28;1972;-71
2023/03/22 03:19:49;;;;;;;;;;;;;;;;;;5113337;28;926;-71
2023/03/22 03:22:26;;;;;;;;;;;;;;;;;;5111488;28;1412;-70
2023/03/22 03:24:52;;;;;;;;;;;;;;;;;;5113057;28;912;-70
2023/03/22 03:27:22;;;;;;;;;;;;;;;;;;5111453;28;1178;-72
2023/03/22 03:29:59;;;;;;;;;;;;;;;;;;5112916;28;900;-71
2023/03/22 03:32:27;;;;;;;;;;;;;;;;;;5113162;28;848;-71
2023/03/22 03:35:00;;;;;;;;;;;;;;;;;;5111915;28;1228;-71
2023/03/22 03:37:29;;;;;;;;;;;;;;;;;;5112632;28;836;-71
2023/03/22 03:40:04;;;;;;;;;;;;;;;;;;5111556;28;1279;-71
2023/03/22 03:42:29;;;;;;;;;;;;;;;;;;5112683;28;918;-71
2023/03/22 03:44:55;;;;;;;;;;;;;;;;;;5111275;28;1388;-71
2023/03/22 03:47:21;;;;;;;;;;;;;;;;;;5112701;28;863;-71
2023/03/22 03:49:47;;;;;;;;;;;;;;;;;;5112637;28;994;-70
2023/03/22 03:52:12;;;;;;;;;;;;;;;;;;5112347;28;955;-71
2023/03/22 03:54:38;;;;;;;;;;;;;;;;;;5114993;28;1169;-71
2023/03/22 03:57:03;;;;;;;;;;;;;;;;;;5115145;28;1972;-71
2023/03/22 03:59:28;;;;;;;;;;;;;;;;;;5115517;28;1145;-71
2023/03/22 04:01:53;;;;;;;;;;;;;;;;;;5098189;28;1092;-71
2023/03/22 04:04:25;;;;;;;;;;;;;;;;;;5114862;28;1090;-71
2023/03/22 04:06:55;;;;;;;;;;;;;;;;;;5115160;28;1190;-71
2023/03/22 04:09:21;;;;;;;;;;;;;;;;;;5115079;28;1114;-71
2023/03/22 04:11:46;;;;;;;;;;;;;;;;;;5114988;28;1150;-71
2023/03/22 04:14:11;;;;;;;;;;;;;;;;;;5115028;28;840;-71
2023/03/22 04:16:37;;;;;;;;;;;;;;;;;;5115257;28;1915;-71
2023/03/22 04:19:02;;;;;;;;;;;;;;;;;;5097748;28;1221;-71
2023/03/22 04:21:27;;;;;;;;;;;;;;;;;;5115056;28;865;-71
2023/03/22 04:23:54;;;;;;;;;;;;;;;;;;5114862;28;1357;-71
2023/03/22 04:26:19;;;;;;;;;;;;;;;;;;5097616;28;1170;-71
2023/03/22 04:28:45;;;;;;;;;;;;;;;;;;5116018;28;777;-71
2023/03/22 04:31:10;;;;;;;;;;;;;;;;;;5097476;28;1214;-71
2023/03/22 04:33:38;;;;;;;;;;;;;;;;;;5114852;28;965;-71
2023/03/22 04:36:05;;;;;;;;;;;;;;;;;;5097487;28;1894;-71
2023/03/22 04:38:31;;;;;;;;;;;;;;;;;;5116392;28;828;-71
2023/03/22 04:40:57;;;;;;;;;;;;;;;;;;5097891;28;1352;-71
2023/03/22 04:43:22;;;;;;;;;;;;;;;;;;5114480;28;1221;-71
2023/03/22 04:45:48;;;;;;;;;;;;;;;;;;5097858;28;1158;-71
2023/03/22 04:48:13;;;;;;;;;;;;;;;;;;5116032;28;895;-71
2023/03/22 04:50:39;;;;;;;;;;;;;;;;;;5114754;28;1237;-71
2023/03/22 04:53:04;;;;;;;;;;;;;;;;;;5114625;28;943;-72
2023/03/22 04:55:30;;;;;;;;;;;;;;;;;;5097491;28;1960;-71
2023/03/22 04:57:55;;;;;;;;;;;;;;;;;;5097449;28;1240;-71
2023/03/22 05:00:21;;;;;;;;;;;;;;;;;;5114492;28;801;-71
2023/03/22 05:02:46;;;;;;;;;;;;;;;;;;5114685;28;1185;-71
2023/03/22 05:05:11;;;;;;;;;;;;;;;;;;5113592;28;1304;-71
2023/03/22 05:07:38;;;;;;;;;;;;;;;;;;5114475;28;915;-71
2023/03/22 05:10:04;;;;;;;;;;;;;;;;;;5115608;28;914;-70
2023/03/22 05:12:30;;;;;;;;;;;;;;;;;;5097769;28;1313;-71
2023/03/22 05:14:55;;;;;;;;;;;;;;;;;;5114423;28;1058;-71
2023/03/22 05:17:21;;;;;;;;;;;;;;;;;;5115215;28;1910;-71
2023/03/22 05:19:46;;;;;;;;;;;;;;;;;;5115220;28;836;-71
2023/03/22 05:22:12;;;;;;;;;;;;;;;;;;5115232;28;1096;-71
2023/03/22 05:24:38;;;;;;;;;;;;;;;;;;5113976;28;1197;-71
2023/03/22 05:27:03;;;;;;;;;;;;;;;;;;5115548;28;1106;-71
2023/03/22 05:29:28;;;;;;;;;;;;;;;;;;5096524;28;1107;-71
2023/03/22 05:31:54;;;;;;;;;;;;;;;;;;5115139;28;935;-72
2023/03/22 05:34:20;;;;;;;;;;;;;;;;;;5113085;28;1191;-71
2023/03/22 05:36:46;;;;;;;;;;;;;;;;;;5096532;28;1975;-71
2023/03/22 05:39:13;;;;;;;;;;;;;;;;;;5113093;28;1186;-71
2023/03/22 05:41:39;;;;;;;;;;;;;;;;;;5113592;28;1338;-71
2023/03/22 05:44:04;;;;;;;;;;;;;;;;;;5113138;28;1249;-71
2023/03/22 05:46:29;;;;;;;;;;;;;;;;;;5114735;27;903;-71
2023/03/22 05:48:54;;;;;;;;;;;;;;;;;;5113074;28;809;-72
2023/03/22 05:51:20;;;;;;;;;;;;;;;;;;5114227;28;884;-71
2023/03/22 05:53:46;;;;;;;;;;;;;;;;;;5113016;28;1063;-71
2023/03/22 05:56:12;;;;;;;;;;;;;;;;;;5096090;28;1961;-71
2023/03/22 05:58:38;;;;;;;;;;;;;;;;;;5112584;28;1179;-70
2023/03/22 06:01:05;;;;;;;;;;;;;;;;;;5105812;28;1191;-71
2023/03/22 06:03:30;;;;;;;;;;;;;;;;;;5101597;28;1201;-71
2023/03/22 06:05:55;;;;;;;;;;;;;;;;;;5114286;28;1226;-71
2023/03/22 06:08:21;;;;;;;;;;;;;;;;;;5112587;28;903;-71
2023/03/22 06:10:47;;;;;;;;;;;;;;;;;;5114063;28;849;-72
2023/03/22 06:13:13;;;;;;;;;;;;;;;;;;5113824;28;946;-71
2023/03/22 06:15:38;;;;;;;;;;;;;;;;;;5111851;28;1905;-72
2023/03/22 06:18:03;;;;;;;;;;;;;;;;;;5112579;28;1339;-71
2023/03/22 06:20:29;;;;;;;;;;;;;;;;;;5113900;28;904;-71
2023/03/22 06:22:55;;;;;;;;;;;;;;;;;;5114692;28;1044;-71
2023/03/22 06:25:20;;;;;;;;;;;;;;;;;;5112412;28;1050;-71
2023/03/22 06:27:46;;;;;;;;;;;;;;;;;;5117612;28;844;-72
2023/03/22 06:30:12;;;;;;;;;;;;;;;;;;5117412;28;875;-72
2023/03/22 06:32:37;;;;;;;;;;;;;;;;;;5114488;28;844;-71
2023/03/22 06:35:02;;;;;;;;;;;;;;;;;;5113126;28;1972;-72
2023/03/22 06:37:28;;;;;;;;;;;;;;;;;;5112959;28;789;-71
2023/03/22 06:39:53;;;;;;;;;;;;;;;;;;5113647;28;875;-71
2023/03/22 06:42:19;;;;;;;;;;;;;;;;;;5113757;28;785;-71
2023/03/22 06:44:44;;;;;;;;;;;;;;;;;;5112526;28;1173;-71
2023/03/22 06:47:10;;;;;;;;;;;;;;;;;;5112438;28;925;-71
2023/03/22 06:49:35;;;;;;;;;;;;;;;;;;5114045;28;837;-71
2023/03/22 06:52:01;;;;;;;;;;;;;;;;;;5095563;28;1285;-72
2023/03/22 06:54:26;;;;;;;;;;;;;;;;;;5113524;28;856;-72
2023/03/22 06:56:52;;;;;;;;;;;;;;;;;;5113802;28;1909;-72
2023/03/22 06:59:17;;;;;;;;;;;;;;;;;;5094858;28;1242;-71
2023/03/22 07:01:42;;;;;;;;;;;;;;;;;;5111980;28;1380;-72
2023/03/22 07:04:08;;;;;;;;;;;;;;;;;;5112146;28;1244;-71
2023/03/22 07:06:33;;;;;;;;;;;;;;;;;;5095060;28;1166;-71
2023/03/22 07:08:58;;;;;;;;;;;;;;;;;;5113061;28;833;-71
2023/03/22 07:11:25;;;;;;;;;;;;;;;;;;5094758;28;1214;-71
2023/03/22 07:13:51;;;;;;;;;;;;;;;;;;5111479;28;1185;-71
2023/03/22 07:16:17;;;;;;;;;;;;;;;;;;5112935;28;1893;-71
2023/03/22 07:18:42;;;;;;;;;;;;;;;;;;5111539;28;828;-71
2023/03/22 07:21:07;;;;;;;;;;;;;;;;;;5094486;28;1237;-71
2023/03/22 07:23:32;;;;;;;;;;;;;;;;;;5111181;28;1285;-71
2023/03/22 07:25:59;;;;;;;;;;;;;;;;;;5112243;28;923;-71
2023/03/22 07:28:24;;;;;;;;;;;;;;;;;;5094358;28;1135;-71
2023/03/22 07:30:58;;;;;;;;;;;;;;;;;;5113299;28;878;-71
2023/03/22 07:33:23;;;;;;;;;;;;;;;;;;5112256;28;866;-71
2023/03/22 07:35:48;;;;;;;;;;;;;;;;;;5111636;28;1906;-72
2023/03/22 07:38:14;;;;;;;;;;;;;;;;;;5094270;28;1167;-71
2023/03/22 07:40:39;;;;;;;;;;;;;;;;;;5102068;28;1227;-71
2023/03/22 07:43:05;;;;;;;;;;;;;;;;;;5093514;28;1314;-72
2023/03/22 07:45:30;;;;;;;;;;;;;;;;;;5101200;28;1148;-71
2023/03/22 07:47:55;;;;;;;;;;;;;;;;;;5097115;28;1140;-71
2023/03/22 07:50:21;;;;;;;;;;;;;;;;;;5107823;28;1147;-72
2023/03/22 07:52:46;;;;;;;;;;;;;;;;;;5083096;28;1162;-72
2023/03/22 07:55:12;;;;;;;;;;;;;;;;;;5103428;28;1906;-72
2023/03/22 07:57:38;;;;;;;;;;;;;;;;;;5107964;28;1203;-72
2023/03/22 08:00:05;;;;;;;;;;;;;;;;;;5103037;28;1258;-72
2023/03/22 08:02:30;;;;;;;;;;;;;;;;;;5096043;28;1118;-71
2023/03/22 08:04:55;;;;;;;;;;;;;;;;;;5092986;28;1268;-71
2023/03/22 08:07:21;;;;;;;;;;;;;;;;;;5096918;28;1212;-71
2023/03/22 08:09:46;;;;;;;;;;;;;;;;;;5098333;28;1183;-72
2023/03/22 08:12:12;;;;;;;;;;;;;;;;;;5102581;28;1281;-72
2023/03/22 08:14:37;;;;;;;;;;;;;;;;;;5092173;28;1267;-72
2023/03/22 08:17:04;;;;;;;;;;;;;;;;;;5092173;28;1933;-72
2023/03/22 08:19:30;;;;;;;;;;;;;;;;;;5091361;28;884;-72
2023/03/22 08:21:56;;;;;;;;;;;;;;;;;;5091424;28;1101;-72
2023/03/22 08:24:24;;;;;;;;;;;;;;;;;;5089774;28;813;-73
2023/03/22 08:26:49;;;;;;;;;;;;;;;;;;5089926;28;1111;-72
2023/03/22 08:29:14;;;;;;;;;;;;;;;;;;5090242;28;1292;-72
2023/03/22 08:31:41;;;;;;;;;;;;;;;;;;5090348;28;808;-72
2023/03/22 08:34:06;;;;;;;;;;;;;;;;;;5091488;28;908;-72
2023/03/22 08:36:32;;;;;;;;;;;;;;;;;;5091101;28;1913;-72
2023/03/22 08:38:57;;;;;;;;;;;;;;;;;;5090991;28;1252;-72
2023/03/22 08:41:22;;;;;;;;;;;;;;;;;;5077148;28;1231;-72
2023/03/22 08:43:48;;;;;;;;;;;;;;;;;;5095072;28;944;-72
2023/03/22 08:46:13;;;;;;;;;;;;;;;;;;5095443;28;978;-71
2023/03/22 08:48:40;;;;;;;;;;;;;;;;;;5076770;28;1353;-72
2023/03/22 08:51:06;;;;;;;;;;;;;;;;;;5094047;28;1178;-72
2023/03/22 08:53:32;;;;;;;;;;;;;;;;;;5093722;28;1292;-73
2023/03/22 08:56:00;;;;;;;;;;;;;;;;;;5093348;28;1901;-73
2023/03/22 08:58:26;;;;;;;;;;;;;;;;;;5076782;28;1325;-72
2023/03/22 09:00:51;;;;;;;;;;;;;;;;;;5094900;28;880;-72
2023/03/22 09:03:16;;;;;;;;;;;;;;;;;;5093603;28;1151;-72
2023/03/22 09:05:42;;;;;;;;;;;;;;;;;;5093129;28;829;-72
2023/03/22 09:08:07;;;;;;;;;;;;;;;;;;5094625;28;880;-71
2023/03/22 09:10:33;;;;;;;;;;;;;;;;;;5092743;28;1108;-72
2023/03/22 09:12:58;;;;;;;;;;;;;;;;;;5094308;28;837;-71
2023/03/22 09:15:24;;;;;;;;;;;;;;;;;;5093923;28;1889;-72
2023/03/22 09:17:49;;;;;;;;;;;;;;;;;;5093099;28;951;-71
2023/03/22 09:20:17;;;;;;;;;;;;;;;;;;5093111;28;1176;-71
2023/03/22 09:22:43;;;;;;;;;;;;;;;;;;5092505;28;1424;-71
2023/03/22 09:25:08;;;;;;;;;;;;;;;;;;5094484;28;1060;-71
2023/03/22 09:27:33;;;;;;;;;;;;;;;;;;5092646;28;1288;-71
2023/03/22 09:29:59;;;;;;;;;;;;;;;;;;5093313;28;924;-71
2023/03/22 09:32:25;;;;;;;;;;;;;;;;;;5093070;28;1302;-71
2023/03/22 09:34:50;;;;;;;;;;;;;;;;;;5093002;28;1162;-72
2023/03/22 09:37:15;;;;;;;;;;;;;;;;;;5094109;28;1963;-72
2023/03/22 09:39:43;;;;;;;;;;;;;;;;;;5092770;28;1143;-72
2023/03/22 09:42:27;;;;;;;;;;;;;;;;;;5092736;28;1281;-72
2023/03/22 09:44:54;;;;;;;;;;;;;;;;;;5092720;28;1170;-72
2023/03/22 09:47:23;;;;;;;;;;;;;;;;;;5094609;28;896;-72
2023/03/22 09:49:50;;;;;;;;;;;;;;;;;;5093894;28;919;-72
2023/03/22 09:52:16;;;;;;;;;;;;;;;;;;5091383;28;1177;-72
2023/03/22 09:54:42;;;;;;;;;;;;;;;;;;5075051;28;1190;-72
2023/03/22 09:57:08;;;;;;;;;;;;;;;;;;5093339;28;1914;-72
2023/03/22 09:59:39;;;;;;;;;;;;;;;;;;5092426;28;1212;-72
2023/03/22 10:02:14;;;;;;;;;;;;;;;;;;5092030;28;1296;-71
2023/03/22 10:04:54;;;;;;;;;;;;;;;;;;5091771;28;1186;-71
2023/03/22 10:07:19;;;;;;;;;;;;;;;;;;5091691;28;1194;-72
2023/03/22 10:09:44;;;;;;;;;;;;;;;;;;5093057;28;935;-72
2023/03/22 10:12:15;;;;;;;;;;;;;;;;;;5092142;28;1162;-72
2023/03/22 10:14:56;;;;;;;;;;;;;;;;;;5093607;28;864;-71
2023/03/22 10:17:24;;;;;;;;;;;;;;;;;;5093392;28;2273;-72
2023/03/22 10:19:53;;;;;;;;;;;;;;;;;;5093198;28;911;-72
2023/03/22 10:22:23;;;;;;;;;;;;;;;;;;5093036;28;1211;-72
2023/03/22 10:24:50;;;;;;;;;;;;;;;;;;5092154;28;1308;-72
2023/03/22 10:27:17;;;;;;;;;;;;;;;;;;5093274;28;880;-71
2023/03/22 10:29:47;;;;;;;;;;;;;;;;;;5093144;28;895;-72
2023/03/22 10:32:17;;;;;;;;;;;;;;;;;;5093247;28;805;-72
2023/03/22 10:34:42;;;;;;;;;;;;;;;;;;5091839;28;1158;-72
2023/03/22 10:37:12;;;;;;;;;;;;;;;;;;5091847;28;1960;-72
2023/03/22 10:39:40;;;;;;;;;;;;;;;;;;5092793;28;904;-73
2023/03/22 10:42:16;;;;;;;;;;;;;;;;;;5093188;28;797;-72
2023/03/22 10:44:57;;;;;;;;;;;;;;;;;;5091908;28;1297;-72
2023/03/22 10:47:29;;;;;;;;;;;;;;;;;;5091276;28;1293;-72
2023/03/22 10:49:55;;;;;;;;;;;;;;;;;;5091752;28;1154;-73
2023/03/22 10:52:38;;;;;;;;;;;;;;;;;;5092833;28;875;-72
2023/03/22 10:55:07;;;;;;;;;;;;;;;;;;5091397;28;1181;-73
2023/03/22 10:57:33;;;;;;;;;;;;;;;;;;5093321;28;1955;-73
2023/03/22 10:59:59;;;;;;;;;;;;;;;;;;5074747;28;1330;-72
2023/03/22 11:02:28;;;;;;;;;;;;;;;;;;5092239;28;872;-72
2023/03/22 11:04:58;;;;;;;;;;;;;;;;;;5091582;28;1217;-72
2023/03/22 11:07:34;;;;;;;;;;;;;;;;;;5092972;28;840;-72
2023/03/22 11:10:08;;;;;;;;;;;;;;;;;;5092009;28;1252;-72
2023/03/22 11:12:45;;;;;;;;;;;;;;;;;;5092337;28;1154;-72
2023/03/22 11:15:25;;;;;;;;;;;;;;;;;;5091951;28;1257;-72
2023/03/22 11:17:52;;;;;;;;;;;;;;;;;;5093149;28;887;-73
2023/03/22 11:20:18;;;;;;;;;;;;;;;;;;5091225;28;1312;-72
2023/03/22 11:22:45;;;;;;;;;;;;;;;;;;5091479;28;1164;-72
2023/03/22 11:25:30;;;;;;;;;;;;;;;;;;5091457;28;1300;-72
2023/03/22 11:27:57;;;;;;;;;;;;;;;;;;5091608;28;1262;-72
2023/03/22 11:30:26;;;;;;;;;;;;;;;;;;5092817;28;1053;-72
2023/03/22 11:32:59;;;;;;;;;;;;;;;;;;5092152;28;1237;-72
2023/03/22 11:35:25;;;;;;;;;;;;;;;;;;5091159;28;1902;-72
2023/03/22 11:37:52;;;;;;;;;;;;;;;;;;5092235;28;1003;-72
2023/03/22 11:40:25;;;;;;;;;;;;;;;;;;5090982;28;1238;-72
2023/03/22 11:43:16;;;;;;;;;;;;;;;;;;5090800;28;1308;-72
2023/03/22 11:45:42;;;;;;;;;;;;;;;;;;5087417;28;1235;-73
2023/03/22 11:48:12;;;;;;;;;;;;;;;;;;5091104;28;1284;-72
2023/03/22 11:50:39;;;;;;;;;;;;;;;;;;5090885;28;1209;-72
2023/03/22 11:53:07;;;;;;;;;;;;;;;;;;5091325;28;1296;-72
2023/03/22 11:55:34;;;;;;;;;;;;;;;;;;5090977;28;1906;-72
2023/03/22 11:58:02;;;;;;;;;;;;;;;;;;5093125;28;832;-72
2023/03/22 12:00:29;;;;;;;;;;;;;;;;;;5091285;28;1250;-72
2023/03/22 12:02:54;;;;;;;;;;;;;;;;;;5092942;28;820;-72
2023/03/22 12:05:19;;;;;;;;;;;;;;;;;;5091760;28;1301;-72
2023/03/22 12:07:46;;;;;;;;;;;;;;;;;;5091671;28;1193;-72
2023/03/22 12:10:14;;;;;;;;;;;;;;;;;;5091382;28;1280;-72
2023/03/22 12:12:46;;;;;;;;;;;;;;;;;;5091562;28;1245;-71
2023/03/22 12:15:35;;;;;;;;;;;;;;;;;;5094033;28;1304;-71
2023/03/22 12:18:00;;;;;;;;;;;;;;;;;;5090902;28;1090;-72
2023/03/22 12:20:37;;;;;;;;;;;;;;;;;;5095087;28;1277;-72
2023/03/22 12:23:08;;;;;;;;;;;;;;;;;;5094538;28;1190;-72
2023/03/22 12:25:34;;;;;;;;;;;;;;;;;;5094663;28;1186;-71
2023/03/22 12:28:03;;;;;;;;;;;;;;;;;;5094581;28;1235;-71
2023/03/22 12:30:30;;;;;;;;;;;;;;;;;;5095773;28;899;-72
2023/03/22 12:32:55;;;;;;;;;;;;;;;;;;5095783;28;1002;-71
2023/03/22 12:35:24;;;;;;;;;;;;;;;;;;5095700;28;1985;-72
2023/03/22 12:38:04;;;;;;;;;;;;;;;;;;5095548;28;903;-71
2023/03/22 12:40:36;;;;;;;;;;;;;;;;;;5095637;28;805;-71
2023/03/22 12:43:14;;;;;;;;;;;;;;;;;;5095071;28;1484;-71
2023/03/22 12:45:42;;;;;;;;;;;;;;;;;;5095313;28;1325;-71
2023/03/22 12:48:15;;;;;;;;;;;;;;;;;;5093126;28;1226;-71
2023/03/22 12:50:46;;;;;;;;;;;;;;;;;;5094018;28;1194;-71
2023/03/22 12:53:16;;;;;;;;;;;;;;;;;;5095254;28;1245;-71
2023/03/22 12:55:42;;;;;;;;;;;;;;;;;;5095797;28;1902;-71
2023/03/22 12:58:09;;;;;;;;;;;;;;;;;;5095571;28;928;-71
2023/03/22 13:00:39;;;;;;;;;;;;;;;;;;5094782;28;1206;-71
2023/03/22 13:03:16;;;;;;;;;;;;;;;;;;5095720;28;852;-71
2023/03/22 13:05:44;;;;;;;;;;;;;;;;;;5094492;28;1265;-72
2023/03/22 13:08:10;;;;;;;;;;;;;;;;;;5095370;28;824;-71
2023/03/22 13:10:37;;;;;;;;;;;;;;;;;;5094104;28;1175;-71
2023/03/22 13:13:08;;;;;;;;;;;;;;;;;;5095501;28;840;-71
2023/03/22 13:15:35;;;;;;;;;;;;;;;;;;5094097;28;1938;-71
2023/03/22 13:18:00;;;;;;;;;;;;;;;;;;5094412;28;1178;-71
2023/03/22 13:20:27;;;;;;;;;;;;;;;;;;5095534;28;935;-71
2023/03/22 13:22:52;;;;;;;;;;;;;;;;;;5095859;28;1064;-71
2023/03/22 13:25:18;;;;;;;;;;;;;;;;;;5094836;28;1162;-71
2023/03/22 13:27:56;;;;;;;;;;;;;;;;;;5094098;28;1372;-71
2023/03/22 13:30:40;;;;;;;;;;;;;;;;;;5095049;28;840;-72
2023/03/22 13:33:08;;;;;;;;;;;;;;;;;;5093862;28;1261;-72
2023/03/22 13:36:09;;;;;;;;;;;;;;;;;;5093132;28;1913;-71
2023/03/22 13:38:38;;;;;;;;;;;;;;;;;;5036451;28;1354;-71
2023/03/22 13:41:08;;;;;;;;;;;;;;;;;;5086744;28;890;-72
2023/03/22 13:43:35;;;;;;;;;;;;;;;;;;5093788;28;1158;-72
2023/03/22 13:46:01;;;;;;;;;;;;;;;;;;5093940;28;1284;-71
2023/03/22 13:48:28;;;;;;;;;;;;;;;;;;5095074;28;837;-72
2023/03/22 13:50:53;;;;;;;;;;;;;;;;;;5093863;28;1158;-72
2023/03/22 13:53:22;;;;;;;;;;;;;;;;;;5094233;28;880;-72
2023/03/22 13:55:47;;;;;;;;;;;;;;;;;;5093612;28;1910;-72
2023/03/22 13:58:34;;;;;;;;;;;;;;;;;;5093276;28;1157;-72
2023/03/22 14:01:01;;;;;;;;;;;;;;;;;;5093018;28;1301;-72
2023/03/22 14:03:31;;;;;;;;;;;;;;;;;;5094548;28;963;-72
2023/03/22 14:06:19;;;;;;;;;;;;;;;;;;5093014;28;1325;-72
2023/03/22 14:08:47;;;;;;;;;;;;;;;;;;5088457;28;1091;-72
2023/03/22 14:11:12;;;;;;;;;;;;;;;;;;5093657;28;1139;-72
2023/03/22 14:13:46;;;;;;;;;;;;;;;;;;5094726;28;879;-72
2023/03/22 14:16:21;;;;;;;;;;;;;;;;;;5094359;28;1902;-71
2023/03/22 14:18:48;;;;;;;;;;;;;;;;;;5093076;28;1308;-72
2023/03/22 14:21:18;;;;;;;;;;;;;;;;;;5093238;28;1264;-72
2023/03/22 14:23:54;;;;;;;;;;;;;;;;;;5094643;28;1262;-72
2023/03/22 14:26:25;;;;;;;;;;;;;;;;;;5093002;28;1179;-72
2023/03/22 14:28:53;;;;;;;;;;;;;;;;;;5094824;28;903;-72
2023/03/22 14:31:18;;;;;;;;;;;;;;;;;;5093169;28;840;-72
2023/03/22 14:33:44;;;;;;;;;;;;;;;;;;5093194;28;1290;-72
2023/03/22 14:36:11;;;;;;;;;;;;;;;;;;5075815;28;1971;-72
2023/03/22 14:38:41;;;;;;;;;;;;;;;;;;5093887;28;898;-72
2023/03/22 14:41:17;;;;;;;;;;;;;;;;;;5092231;28;1289;-71
2023/03/22 14:43:45;;;;;;;;;;;;;;;;;;5096134;28;797;-72
2023/03/22 14:46:13;;;;;;;;;;;;;;;;;;5098583;28;865;-71
2023/03/22 14:48:38;;;;;;;;;;;;;;;;;;5098632;28;903;-72
2023/03/22 14:51:07;;;;;;;;;;;;;;;;;;5098951;28;919;-72
2023/03/22 14:53:37;;;;;;;;;;;;;;;;;;5099076;28;1158;-72
2023/03/22 14:56:04;;;;;;;;;;;;;;;;;;5099807;28;1961;-72
2023/03/22 14:58:32;;;;;;;;;;;;;;;;;;5099581;28;1265;-72
2023/03/22 15:01:07;;;;;;;;;;;;;;;;;;5098409;28;1407;-72
2023/03/22 15:03:33;;;;;;;;;;;;;;;;;;5102378;28;1345;-72
2023/03/22 15:05:59;;;;;;;;;;;;;;;;;;5102258;28;883;-72
2023/03/22 15:08:26;;;;;;;;;;;;;;;;;;5103915;28;781;-71
2023/03/22 15:11:04;;;;;;;;;;;;;;;;;;5104038;28;785;-71
2023/03/22 15:13:30;;;;;;;;;;;;;;;;;;5103785;28;1166;-71
2023/03/22 15:15:56;;;;;;;;;;;;;;;;;;5103601;28;1968;-71
2023/03/22 15:18:23;;;;;;;;;;;;;;;;;;5104702;28;1023;-72
2023/03/22 15:20:52;;;;;;;;;;;;;;;;;;5104466;28;1015;-72
2023/03/22 15:23:19;;;;;;;;;;;;;;;;;;5104543;28;1065;-71
2023/03/22 15:25:57;;;;;;;;;;;;;;;;;;5103579;28;1036;-72
2023/03/22 15:28:25;;;;;;;;;;;;;;;;;;5103027;28;1120;-71
2023/03/22 15:30:51;;;;;;;;;;;;;;;;;;5104189;28;1265;-71
2023/03/22 15:33:20;;;;;;;;;;;;;;;;;;5103498;28;919;-73
2023/03/22 15:35:46;;;;;;;;;;;;;;;;;;5101580;28;1886;-73
2023/03/22 15:38:12;;;;;;;;;;;;;;;;;;5103834;28;804;-72
2023/03/22 15:40:39;;;;;;;;;;;;;;;;;;5094675;28;990;-73
2023/03/22 15:43:18;;;;;;;;;;;;;;;;;;5093170;28;876;-72
2023/03/22 15:46:03;;;;;;;;;;;;;;;;;;5091866;28;1297;-72
2023/03/22 15:48:28;;;;;;;;;;;;;;;;;;5094061;28;1011;-72
2023/03/22 15:50:54;;;;;;;;;;;;;;;;;;5096205;28;852;-72
2023/03/22 15:53:30;;;;;;;;;;;;;;;;;;5095404;28;1345;-72
2023/03/22 15:55:55;;;;;;;;;;;;;;;;;;5097129;28;1955;-72
2023/03/22 15:58:27;;;;;;;;;;;;;;;;;;5095656;28;1170;-72
2023/03/22 16:01:06;;;;;;;;;;;;;;;;;;5096016;28;1139;-72
2023/03/22 16:03:41;;;;;;;;;;;;;;;;;;5095525;28;1201;-72
2023/03/22 16:06:08;;;;;;;;;;;;;;;;;;5095881;28;1445;-72
2023/03/22 16:08:34;;;;;;;;;;;;;;;;;;5095515;28;1508;-73
2023/03/22 16:10:59;;;;;;;;;;;;;;;;;;5078512;28;1231;-72
2023/03/22 16:13:24;;;;;;;;;;;;;;;;;;5095185;28;1026;-72
2023/03/22 16:15:50;;;;;;;;;;;;;;;;;;5095521;28;1898;-72
2023/03/22 16:18:16;;;;;;;;;;;;;;;;;;5094765;28;1273;-72
2023/03/22 16:20:42;;;;;;;;;;;;;;;;;;5096492;28;920;-72
2023/03/22 16:23:12;;;;;;;;;;;;;;;;;;5094461;28;1231;-73
2023/03/22 16:25:38;;;;;;;;;;;;;;;;;;5096454;28;986;-72
2023/03/22 16:28:04;;;;;;;;;;;;;;;;;;5094946;28;845;-73
2023/03/22 16:30:32;;;;;;;;;;;;;;;;;;5095272;28;1293;-72
2023/03/22 16:32:58;;;;;;;;;;;;;;;;;;5078899;28;1340;-72
2023/03/22 16:35:24;;;;;;;;;;;;;;;;;;5095196;28;947;-72
2023/03/22 16:37:51;;;;;;;;;;;;;;;;;;5094112;28;1905;-72
2023/03/22 16:40:17;;;;;;;;;;;;;;;;;;5094495;28;860;-71
2023/03/22 16:42:43;;;;;;;;;;;;;;;;;;5094159;28;1439;-71
2023/03/22 16:45:12;;;;;;;;;;;;;;;;;;5093402;28;1248;-71
2023/03/22 16:47:37;;;;;;;;;;;;;;;;;;5093950;28;1272;-71
2023/03/22 16:50:03;;;;;;;;;;;;;;;;;;5077136;28;1218;-71
2023/03/22 16:52:30;;;;;;;;;;;;;;;;;;5076777;28;1305;-71
2023/03/22 16:54:55;;;;;;;;;;;;;;;;;;5094157;28;883;-71
2023/03/22 16:57:23;;;;;;;;;;;;;;;;;;5094008;28;1902;-72
2023/03/22 16:59:51;;;;;;;;;;;;;;;;;;5093307;28;1385;-71
2023/03/22 17:02:20;;;;;;;;;;;;;;;;;;5093469;28;1332;-72
2023/03/22 17:04:45;;;;;;;;;;;;;;;;;;5095178;28;856;-72
2023/03/22 17:07:12;;;;;;;;;;;;;;;;;;5094140;28;1197;-71
2023/03/22 17:09:37;;;;;;;;;;;;;;;;;;5095652;28;876;-72
2023/03/22 17:12:03;;;;;;;;;;;;;;;;;;5094239;28;899;-71
2023/03/22 17:14:28;;;;;;;;;;;;;;;;;;5094803;28;958;-72